sensor_id;sensor_type;location;lat;lon;timestamp;P1;durP1;ratioP1;P2;durP2;ratioP2
65373;SDS011;52070;53.760;9.678;2023-01-29T00:01:56;32.67;;;14.07;;
65373;SDS011;52070;53.760;9.678;2023-01-29T00:04:25;33.60;;;14.40;;
65373;SDS011;52070;53.760;9.678;2023-01-29T00:06:52;35.63;;;14.27;;
65373;SDS011;52070;53.760;9.678;2023-01-29T00:09:19;42.67;;;14.55;;
65373;SDS011;52070;53.760;9.678;2023-01-29T00:11:46;38.72;;;14.90;;
65373;SDS011;52070;53.760;9.678;2023-01-29T00:14:13;36.67;;;14.90;;
65373;SDS011;52070;53.760;9.678;2023-01-29T00:16:40;40.10;;;15.27;;
65373;SDS011;52070;53.760;9.678;2023-01-29T00:19:07;37.85;;;14.57;;
65373;SDS011;52070;53.760;9.678;2023-01-29T00:21:36;35.55;;;14.50;;
65373;SDS011;52070;53.760;9.678;2023-01-29T00:24:03;39.58;;;15.02;;
65373;SDS011;52070;53.760;9.678;2023-01-29T00:26:30;39.55;;;14.15;;
65373;SDS011;52070;53.760;9.678;2023-01-29T00:28:57;31.38;;;14.00;;
65373;SDS011;52070;53.760;9.678;2023-01-29T00:31:26;39.05;;;15.45;;
65373;SDS011;52070;53.760;9.678;2023-01-29T00:33:53;36.70;;;13.90;;
65373;SDS011;52070;53.760;9.678;2023-01-29T00:36:21;34.35;;;14.05;;
65373;SDS011;52070;53.760;9.678;2023-01-29T00:38:54;35.03;;;15.57;;
65373;SDS011;52070;53.760;9.678;2023-01-29T00:41:24;35.47;;;14.52;;
65373;SDS011;52070;53.760;9.678;2023-01-29T00:44:09;37.60;;;15.88;;
65373;SDS011;52070;53.760;9.678;2023-01-29T00:46:54;35.45;;;14.68;;
65373;SDS011;52070;53.760;9.678;2023-01-29T00:49:21;33.15;;;14.85;;
65373;SDS011;52070;53.760;9.678;2023-01-29T00:51:48;37.25;;;14.98;;
65373;SDS011;52070;53.760;9.678;2023-01-29T00:54:30;34.83;;;14.52;;
65373;SDS011;52070;53.760;9.678;2023-01-29T00:56:57;43.35;;;14.52;;
65373;SDS011;52070;53.760;9.678;2023-01-29T00:59:24;35.08;;;14.68;;
65373;SDS011;52070;53.760;9.678;2023-01-29T01:01:51;33.47;;;13.98;;
65373;SDS011;52070;53.760;9.678;2023-01-29T01:04:36;40.60;;;13.80;;
65373;SDS011;52070;53.760;9.678;2023-01-29T01:07:03;34.65;;;14.38;;
65373;SDS011;52070;53.760;9.678;2023-01-29T01:09:33;35.10;;;15.38;;
65373;SDS011;52070;53.760;9.678;2023-01-29T01:12:18;32.10;;;14.57;;
65373;SDS011;52070;53.760;9.678;2023-01-29T01:14:45;35.85;;;14.40;;
65373;SDS011;52070;53.760;9.678;2023-01-29T01:17:12;30.58;;;14.50;;
65373;SDS011;52070;53.760;9.678;2023-01-29T01:19:40;32.05;;;13.63;;
65373;SDS011;52070;53.760;9.678;2023-01-29T01:22:07;31.05;;;13.48;;
65373;SDS011;52070;53.760;9.678;2023-01-29T01:24:35;37.60;;;14.05;;
65373;SDS011;52070;53.760;9.678;2023-01-29T01:27:03;30.38;;;13.05;;
65373;SDS011;52070;53.760;9.678;2023-01-29T01:29:30;31.85;;;13.68;;
65373;SDS011;52070;53.760;9.678;2023-01-29T01:31:57;30.70;;;13.93;;
65373;SDS011;52070;53.760;9.678;2023-01-29T01:34:24;29.70;;;12.80;;
65373;SDS011;52070;53.760;9.678;2023-01-29T01:36:52;27.98;;;12.57;;
65373;SDS011;52070;53.760;9.678;2023-01-29T01:39:20;29.35;;;13.20;;
65373;SDS011;52070;53.760;9.678;2023-01-29T01:41:49;30.85;;;13.30;;
65373;SDS011;52070;53.760;9.678;2023-01-29T01:47:19;34.28;;;13.80;;
65373;SDS011;52070;53.760;9.678;2023-01-29T01:49:50;33.72;;;13.93;;
65373;SDS011;52070;53.760;9.678;2023-01-29T01:52:18;33.30;;;13.82;;
65373;SDS011;52070;53.760;9.678;2023-01-29T01:54:46;29.02;;;13.30;;
65373;SDS011;52070;53.760;9.678;2023-01-29T01:57:16;27.83;;;13.45;;
65373;SDS011;52070;53.760;9.678;2023-01-29T01:59:50;29.25;;;13.85;;
65373;SDS011;52070;53.760;9.678;2023-01-29T02:02:21;31.70;;;13.82;;
65373;SDS011;52070;53.760;9.678;2023-01-29T02:05:07;33.03;;;14.07;;
65373;SDS011;52070;53.760;9.678;2023-01-29T02:07:54;38.25;;;14.48;;
65373;SDS011;52070;53.760;9.678;2023-01-29T02:10:40;29.25;;;13.85;;
65373;SDS011;52070;53.760;9.678;2023-01-29T02:13:10;27.40;;;13.40;;
65373;SDS011;52070;53.760;9.678;2023-01-29T02:15:40;35.70;;;14.45;;
65373;SDS011;52070;53.760;9.678;2023-01-29T02:18:11;34.70;;;14.75;;
65373;SDS011;52070;53.760;9.678;2023-01-29T02:20:40;31.00;;;15.30;;
65373;SDS011;52070;53.760;9.678;2023-01-29T02:23:14;30.92;;;15.82;;
65373;SDS011;52070;53.760;9.678;2023-01-29T02:26:03;35.83;;;14.65;;
65373;SDS011;52070;53.760;9.678;2023-01-29T02:28:42;33.03;;;14.82;;
65373;SDS011;52070;53.760;9.678;2023-01-29T02:31:15;29.80;;;15.05;;
65373;SDS011;52070;53.760;9.678;2023-01-29T02:33:52;33.70;;;15.15;;
65373;SDS011;52070;53.760;9.678;2023-01-29T02:36:29;33.38;;;14.88;;
65373;SDS011;52070;53.760;9.678;2023-01-29T02:39:03;31.63;;;15.20;;
65373;SDS011;52070;53.760;9.678;2023-01-29T02:41:40;32.88;;;15.18;;
65373;SDS011;52070;53.760;9.678;2023-01-29T02:44:13;30.73;;;15.05;;
65373;SDS011;52070;53.760;9.678;2023-01-29T02:46:49;28.92;;;14.70;;
65373;SDS011;52070;53.760;9.678;2023-01-29T02:49:23;29.88;;;14.32;;
65373;SDS011;52070;53.760;9.678;2023-01-29T02:51:55;30.88;;;14.82;;
65373;SDS011;52070;53.760;9.678;2023-01-29T02:54:30;29.17;;;13.40;;
65373;SDS011;52070;53.760;9.678;2023-01-29T02:57:03;27.13;;;13.32;;
65373;SDS011;52070;53.760;9.678;2023-01-29T02:59:37;38.03;;;14.27;;
65373;SDS011;52070;53.760;9.678;2023-01-29T03:02:07;29.65;;;13.60;;
65373;SDS011;52070;53.760;9.678;2023-01-29T03:04:39;30.05;;;14.82;;
65373;SDS011;52070;53.760;9.678;2023-01-29T03:07:12;25.75;;;13.20;;
65373;SDS011;52070;53.760;9.678;2023-01-29T03:10:03;26.30;;;13.23;;
65373;SDS011;52070;53.760;9.678;2023-01-29T03:12:35;23.15;;;12.55;;
65373;SDS011;52070;53.760;9.678;2023-01-29T03:15:07;22.20;;;11.70;;
65373;SDS011;52070;53.760;9.678;2023-01-29T03:17:38;21.80;;;11.35;;
65373;SDS011;52070;53.760;9.678;2023-01-29T03:20:10;26.70;;;13.02;;
65373;SDS011;52070;53.760;9.678;2023-01-29T03:22:43;20.98;;;10.93;;
65373;SDS011;52070;53.760;9.678;2023-01-29T03:25:13;21.67;;;10.98;;
65373;SDS011;52070;53.760;9.678;2023-01-29T03:27:59;20.40;;;10.40;;
65373;SDS011;52070;53.760;9.678;2023-01-29T03:30:47;23.48;;;11.50;;
65373;SDS011;52070;53.760;9.678;2023-01-29T03:33:38;26.42;;;11.55;;
65373;SDS011;52070;53.760;9.678;2023-01-29T03:36:10;24.10;;;11.15;;
65373;SDS011;52070;53.760;9.678;2023-01-29T03:38:41;19.60;;;10.88;;
65373;SDS011;52070;53.760;9.678;2023-01-29T03:41:09;20.05;;;11.55;;
65373;SDS011;52070;53.760;9.678;2023-01-29T03:43:47;27.70;;;11.10;;
65373;SDS011;52070;53.760;9.678;2023-01-29T03:46:22;19.13;;;10.32;;
65373;SDS011;52070;53.760;9.678;2023-01-29T03:48:55;19.58;;;10.55;;
65373;SDS011;52070;53.760;9.678;2023-01-29T03:51:27;28.05;;;11.18;;
65373;SDS011;52070;53.760;9.678;2023-01-29T03:54:01;22.95;;;12.50;;
65373;SDS011;52070;53.760;9.678;2023-01-29T03:56:40;24.92;;;12.85;;
65373;SDS011;52070;53.760;9.678;2023-01-29T03:59:18;24.88;;;12.40;;
65373;SDS011;52070;53.760;9.678;2023-01-29T04:01:52;28.70;;;12.55;;
65373;SDS011;52070;53.760;9.678;2023-01-29T04:04:23;27.58;;;14.05;;
65373;SDS011;52070;53.760;9.678;2023-01-29T04:06:53;28.65;;;12.93;;
65373;SDS011;52070;53.760;9.678;2023-01-29T04:09:24;26.88;;;12.90;;
65373;SDS011;52070;53.760;9.678;2023-01-29T04:11:58;24.13;;;12.82;;
65373;SDS011;52070;53.760;9.678;2023-01-29T04:14:30;28.75;;;13.18;;
65373;SDS011;52070;53.760;9.678;2023-01-29T04:17:01;31.17;;;13.63;;
65373;SDS011;52070;53.760;9.678;2023-01-29T04:19:32;29.83;;;14.02;;
65373;SDS011;52070;53.760;9.678;2023-01-29T04:22:01;32.67;;;14.05;;
65373;SDS011;52070;53.760;9.678;2023-01-29T04:24:31;33.53;;;14.02;;
65373;SDS011;52070;53.760;9.678;2023-01-29T04:27:04;31.55;;;13.75;;
65373;SDS011;52070;53.760;9.678;2023-01-29T04:29:41;30.35;;;14.15;;
65373;SDS011;52070;53.760;9.678;2023-01-29T04:32:25;28.85;;;13.55;;
65373;SDS011;52070;53.760;9.678;2023-01-29T04:35:02;28.40;;;14.02;;
65373;SDS011;52070;53.760;9.678;2023-01-29T04:37:38;29.67;;;13.73;;
65373;SDS011;52070;53.760;9.678;2023-01-29T04:40:13;26.58;;;13.38;;
65373;SDS011;52070;53.760;9.678;2023-01-29T04:42:47;29.85;;;13.55;;
65373;SDS011;52070;53.760;9.678;2023-01-29T04:45:20;35.95;;;13.38;;
65373;SDS011;52070;53.760;9.678;2023-01-29T04:47:57;28.42;;;13.02;;
65373;SDS011;52070;53.760;9.678;2023-01-29T04:50:35;24.52;;;12.45;;
65373;SDS011;52070;53.760;9.678;2023-01-29T04:53:06;26.92;;;13.57;;
65373;SDS011;52070;53.760;9.678;2023-01-29T04:55:39;28.48;;;13.02;;
65373;SDS011;52070;53.760;9.678;2023-01-29T04:58:11;26.35;;;13.20;;
65373;SDS011;52070;53.760;9.678;2023-01-29T05:00:42;27.95;;;12.60;;
65373;SDS011;52070;53.760;9.678;2023-01-29T05:03:12;23.52;;;12.35;;
65373;SDS011;52070;53.760;9.678;2023-01-29T05:05:41;22.73;;;12.60;;
65373;SDS011;52070;53.760;9.678;2023-01-29T05:08:11;26.92;;;12.65;;
65373;SDS011;52070;53.760;9.678;2023-01-29T05:10:42;23.45;;;12.10;;
65373;SDS011;52070;53.760;9.678;2023-01-29T05:13:12;26.88;;;12.93;;
65373;SDS011;52070;53.760;9.678;2023-01-29T05:15:43;26.05;;;12.20;;
65373;SDS011;52070;53.760;9.678;2023-01-29T05:18:14;28.02;;;13.00;;
65373;SDS011;52070;53.760;9.678;2023-01-29T05:20:41;26.45;;;12.70;;
65373;SDS011;52070;53.760;9.678;2023-01-29T05:23:09;29.23;;;13.25;;
65373;SDS011;52070;53.760;9.678;2023-01-29T05:25:41;26.55;;;12.63;;
65373;SDS011;52070;53.760;9.678;2023-01-29T05:28:08;24.33;;;11.77;;
65373;SDS011;52070;53.760;9.678;2023-01-29T05:30:41;23.50;;;11.63;;
65373;SDS011;52070;53.760;9.678;2023-01-29T05:33:10;25.70;;;12.15;;
65373;SDS011;52070;53.760;9.678;2023-01-29T05:35:43;31.58;;;12.13;;
65373;SDS011;52070;53.760;9.678;2023-01-29T05:38:11;23.83;;;12.57;;
65373;SDS011;52070;53.760;9.678;2023-01-29T05:40:39;22.63;;;11.05;;
65373;SDS011;52070;53.760;9.678;2023-01-29T05:43:11;25.13;;;11.52;;
65373;SDS011;52070;53.760;9.678;2023-01-29T05:45:40;26.35;;;12.15;;
65373;SDS011;52070;53.760;9.678;2023-01-29T05:48:07;25.35;;;12.10;;
65373;SDS011;52070;53.760;9.678;2023-01-29T05:50:35;25.42;;;11.18;;
65373;SDS011;52070;53.760;9.678;2023-01-29T05:53:03;21.20;;;11.30;;
65373;SDS011;52070;53.760;9.678;2023-01-29T05:55:30;23.83;;;11.13;;
65373;SDS011;52070;53.760;9.678;2023-01-29T05:57:57;20.85;;;10.75;;
65373;SDS011;52070;53.760;9.678;2023-01-29T06:00:25;19.48;;;9.40;;
65373;SDS011;52070;53.760;9.678;2023-01-29T06:02:52;19.55;;;10.38;;
65373;SDS011;52070;53.760;9.678;2023-01-29T06:05:19;18.92;;;10.25;;
65373;SDS011;52070;53.760;9.678;2023-01-29T06:07:46;17.65;;;9.30;;
65373;SDS011;52070;53.760;9.678;2023-01-29T06:10:15;19.58;;;10.32;;
65373;SDS011;52070;53.760;9.678;2023-01-29T06:12:43;19.23;;;10.13;;
65373;SDS011;52070;53.760;9.678;2023-01-29T06:15:11;20.95;;;10.13;;
65373;SDS011;52070;53.760;9.678;2023-01-29T06:17:39;18.83;;;9.80;;
65373;SDS011;52070;53.760;9.678;2023-01-29T06:20:07;18.75;;;9.63;;
65373;SDS011;52070;53.760;9.678;2023-01-29T06:22:35;17.45;;;9.82;;
65373;SDS011;52070;53.760;9.678;2023-01-29T06:25:02;18.67;;;9.82;;
65373;SDS011;52070;53.760;9.678;2023-01-29T06:27:31;17.98;;;9.68;;
65373;SDS011;52070;53.760;9.678;2023-01-29T06:29:58;20.38;;;9.43;;
65373;SDS011;52070;53.760;9.678;2023-01-29T06:32:26;20.25;;;9.52;;
65373;SDS011;52070;53.760;9.678;2023-01-29T06:34:53;16.50;;;9.13;;
65373;SDS011;52070;53.760;9.678;2023-01-29T06:37:20;17.70;;;9.70;;
65373;SDS011;52070;53.760;9.678;2023-01-29T06:39:47;16.67;;;9.13;;
65373;SDS011;52070;53.760;9.678;2023-01-29T06:42:14;16.05;;;8.30;;
65373;SDS011;52070;53.760;9.678;2023-01-29T06:44:42;19.55;;;9.20;;
65373;SDS011;52070;53.760;9.678;2023-01-29T06:47:10;14.55;;;7.65;;
65373;SDS011;52070;53.760;9.678;2023-01-29T06:49:37;14.35;;;8.23;;
65373;SDS011;52070;53.760;9.678;2023-01-29T06:52:04;17.40;;;8.40;;
65373;SDS011;52070;53.760;9.678;2023-01-29T06:54:31;27.75;;;8.32;;
65373;SDS011;52070;53.760;9.678;2023-01-29T06:56:58;17.52;;;9.00;;
65373;SDS011;52070;53.760;9.678;2023-01-29T06:59:25;15.43;;;8.40;;
65373;SDS011;52070;53.760;9.678;2023-01-29T07:01:53;16.75;;;8.52;;
65373;SDS011;52070;53.760;9.678;2023-01-29T07:04:20;15.73;;;8.05;;
65373;SDS011;52070;53.760;9.678;2023-01-29T07:06:47;15.25;;;7.95;;
65373;SDS011;52070;53.760;9.678;2023-01-29T07:09:14;15.32;;;8.10;;
65373;SDS011;52070;53.760;9.678;2023-01-29T07:11:41;17.63;;;8.90;;
65373;SDS011;52070;53.760;9.678;2023-01-29T07:14:09;15.70;;;8.57;;
65373;SDS011;52070;53.760;9.678;2023-01-29T07:16:36;17.42;;;8.05;;
65373;SDS011;52070;53.760;9.678;2023-01-29T07:19:04;18.33;;;8.77;;
65373;SDS011;52070;53.760;9.678;2023-01-29T07:21:31;18.65;;;9.68;;
65373;SDS011;52070;53.760;9.678;2023-01-29T07:23:58;16.80;;;9.43;;
65373;SDS011;52070;53.760;9.678;2023-01-29T07:26:25;19.58;;;9.68;;
65373;SDS011;52070;53.760;9.678;2023-01-29T07:28:53;19.20;;;9.88;;
65373;SDS011;52070;53.760;9.678;2023-01-29T07:31:20;24.30;;;10.27;;
65373;SDS011;52070;53.760;9.678;2023-01-29T07:33:47;18.15;;;10.35;;
65373;SDS011;52070;53.760;9.678;2023-01-29T07:36:15;20.05;;;10.43;;
65373;SDS011;52070;53.760;9.678;2023-01-29T07:38:42;21.30;;;11.07;;
65373;SDS011;52070;53.760;9.678;2023-01-29T07:41:10;22.10;;;11.15;;
65373;SDS011;52070;53.760;9.678;2023-01-29T07:43:37;21.50;;;11.07;;
65373;SDS011;52070;53.760;9.678;2023-01-29T07:46:04;18.98;;;11.15;;
65373;SDS011;52070;53.760;9.678;2023-01-29T07:48:31;22.40;;;12.25;;
65373;SDS011;52070;53.760;9.678;2023-01-29T07:50:58;18.70;;;11.63;;
65373;SDS011;52070;53.760;9.678;2023-01-29T07:53:27;27.85;;;12.60;;
65373;SDS011;52070;53.760;9.678;2023-01-29T07:55:54;24.42;;;12.43;;
65373;SDS011;52070;53.760;9.678;2023-01-29T07:58:21;25.33;;;12.80;;
65373;SDS011;52070;53.760;9.678;2023-01-29T08:00:50;30.73;;;14.18;;
65373;SDS011;52070;53.760;9.678;2023-01-29T08:03:17;26.98;;;12.77;;
65373;SDS011;52070;53.760;9.678;2023-01-29T08:05:45;25.02;;;14.20;;
65373;SDS011;52070;53.760;9.678;2023-01-29T08:08:13;29.45;;;15.10;;
65373;SDS011;52070;53.760;9.678;2023-01-29T08:10:41;32.20;;;15.65;;
65373;SDS011;52070;53.760;9.678;2023-01-29T08:13:08;31.25;;;15.05;;
65373;SDS011;52070;53.760;9.678;2023-01-29T08:15:35;34.33;;;16.63;;
65373;SDS011;52070;53.760;9.678;2023-01-29T08:18:02;29.48;;;15.95;;
65373;SDS011;52070;53.760;9.678;2023-01-29T08:20:30;30.05;;;15.80;;
65373;SDS011;52070;53.760;9.678;2023-01-29T08:22:57;32.55;;;16.42;;
65373;SDS011;52070;53.760;9.678;2023-01-29T08:25:25;36.15;;;15.55;;
65373;SDS011;52070;53.760;9.678;2023-01-29T08:27:54;38.10;;;16.77;;
65373;SDS011;52070;53.760;9.678;2023-01-29T08:30:22;28.73;;;15.32;;
65373;SDS011;52070;53.760;9.678;2023-01-29T08:32:49;36.08;;;17.90;;
65373;SDS011;52070;53.760;9.678;2023-01-29T08:35:16;38.38;;;19.15;;
65373;SDS011;52070;53.760;9.678;2023-01-29T08:37:43;35.88;;;18.60;;
65373;SDS011;52070;53.760;9.678;2023-01-29T08:40:10;40.15;;;19.33;;
65373;SDS011;52070;53.760;9.678;2023-01-29T08:42:38;41.08;;;19.88;;
65373;SDS011;52070;53.760;9.678;2023-01-29T08:45:08;39.33;;;21.08;;
65373;SDS011;52070;53.760;9.678;2023-01-29T08:47:36;41.72;;;19.17;;
65373;SDS011;52070;53.760;9.678;2023-01-29T08:50:03;43.67;;;21.48;;
65373;SDS011;52070;53.760;9.678;2023-01-29T08:52:30;50.00;;;21.80;;
65373;SDS011;52070;53.760;9.678;2023-01-29T08:54:57;45.33;;;22.38;;
65373;SDS011;52070;53.760;9.678;2023-01-29T08:57:24;42.47;;;22.25;;
65373;SDS011;52070;53.760;9.678;2023-01-29T08:59:51;46.92;;;23.05;;
65373;SDS011;52070;53.760;9.678;2023-01-29T09:02:20;52.30;;;23.23;;
65373;SDS011;52070;53.760;9.678;2023-01-29T09:04:47;53.97;;;25.08;;
65373;SDS011;52070;53.760;9.678;2023-01-29T09:07:14;58.50;;;26.42;;
65373;SDS011;52070;53.760;9.678;2023-01-29T09:09:41;56.58;;;25.42;;
65373;SDS011;52070;53.760;9.678;2023-01-29T09:12:08;57.70;;;26.25;;
65373;SDS011;52070;53.760;9.678;2023-01-29T09:14:35;54.05;;;25.42;;
65373;SDS011;52070;53.760;9.678;2023-01-29T09:17:02;58.58;;;24.88;;
65373;SDS011;52070;53.760;9.678;2023-01-29T09:19:30;59.03;;;25.80;;
65373;SDS011;52070;53.760;9.678;2023-01-29T09:21:57;52.03;;;24.67;;
65373;SDS011;52070;53.760;9.678;2023-01-29T09:24:25;65.43;;;25.30;;
65373;SDS011;52070;53.760;9.678;2023-01-29T09:26:52;54.35;;;24.90;;
65373;SDS011;52070;53.760;9.678;2023-01-29T09:29:19;59.83;;;27.10;;
65373;SDS011;52070;53.760;9.678;2023-01-29T09:31:46;53.92;;;24.88;;
65373;SDS011;52070;53.760;9.678;2023-01-29T09:34:13;60.03;;;26.65;;
65373;SDS011;52070;53.760;9.678;2023-01-29T09:36:42;57.05;;;24.77;;
65373;SDS011;52070;53.760;9.678;2023-01-29T09:39:09;57.80;;;25.23;;
65373;SDS011;52070;53.760;9.678;2023-01-29T09:41:40;56.85;;;25.50;;
65373;SDS011;52070;53.760;9.678;2023-01-29T09:44:16;58.28;;;25.27;;
65373;SDS011;52070;53.760;9.678;2023-01-29T09:46:49;57.15;;;25.63;;
65373;SDS011;52070;53.760;9.678;2023-01-29T09:49:20;54.07;;;24.77;;
65373;SDS011;52070;53.760;9.678;2023-01-29T09:51:52;58.95;;;25.02;;
65373;SDS011;52070;53.760;9.678;2023-01-29T09:54:23;54.58;;;23.98;;
65373;SDS011;52070;53.760;9.678;2023-01-29T09:56:55;51.95;;;24.50;;
65373;SDS011;52070;53.760;9.678;2023-01-29T09:59:24;51.38;;;23.67;;
65373;SDS011;52070;53.760;9.678;2023-01-29T10:01:55;55.28;;;23.88;;
65373;SDS011;52070;53.760;9.678;2023-01-29T10:04:49;49.63;;;23.65;;
65373;SDS011;52070;53.760;9.678;2023-01-29T10:07:29;52.83;;;24.50;;
65373;SDS011;52070;53.760;9.678;2023-01-29T10:10:12;52.88;;;24.45;;
65373;SDS011;52070;53.760;9.678;2023-01-29T10:12:52;59.58;;;24.42;;
65373;SDS011;52070;53.760;9.678;2023-01-29T10:15:27;56.67;;;25.10;;
65373;SDS011;52070;53.760;9.678;2023-01-29T10:18:30;53.00;;;24.80;;
65373;SDS011;52070;53.760;9.678;2023-01-29T10:21:18;56.08;;;23.58;;
65373;SDS011;52070;53.760;9.678;2023-01-29T10:24:09;57.05;;;25.85;;
65373;SDS011;52070;53.760;9.678;2023-01-29T10:26:44;53.42;;;23.90;;
65373;SDS011;52070;53.760;9.678;2023-01-29T10:29:13;58.08;;;24.65;;
65373;SDS011;52070;53.760;9.678;2023-01-29T10:31:43;55.63;;;24.77;;
65373;SDS011;52070;53.760;9.678;2023-01-29T10:34:16;51.20;;;23.45;;
65373;SDS011;52070;53.760;9.678;2023-01-29T10:36:50;54.17;;;25.17;;
65373;SDS011;52070;53.760;9.678;2023-01-29T10:39:21;51.10;;;23.67;;
65373;SDS011;52070;53.760;9.678;2023-01-29T10:41:56;51.22;;;24.63;;
65373;SDS011;52070;53.760;9.678;2023-01-29T10:44:40;51.78;;;25.15;;
65373;SDS011;52070;53.760;9.678;2023-01-29T10:52:50;50.25;;;23.02;;
65373;SDS011;52070;53.760;9.678;2023-01-29T10:55:37;54.13;;;24.02;;
65373;SDS011;52070;53.760;9.678;2023-01-29T10:58:11;53.80;;;25.55;;
65373;SDS011;52070;53.760;9.678;2023-01-29T11:00:47;51.53;;;25.15;;
65373;SDS011;52070;53.760;9.678;2023-01-29T11:03:16;51.03;;;24.20;;
65373;SDS011;52070;53.760;9.678;2023-01-29T11:05:48;51.45;;;24.58;;
65373;SDS011;52070;53.760;9.678;2023-01-29T11:08:22;52.75;;;23.90;;
65373;SDS011;52070;53.760;9.678;2023-01-29T11:10:57;47.08;;;24.73;;
65373;SDS011;52070;53.760;9.678;2023-01-29T11:13:30;46.00;;;24.50;;
65373;SDS011;52070;53.760;9.678;2023-01-29T11:16:00;49.40;;;24.05;;
65373;SDS011;52070;53.760;9.678;2023-01-29T11:18:48;47.13;;;24.75;;
65373;SDS011;52070;53.760;9.678;2023-01-29T11:21:20;49.00;;;23.88;;
65373;SDS011;52070;53.760;9.678;2023-01-29T11:23:49;42.25;;;22.95;;
65373;SDS011;52070;53.760;9.678;2023-01-29T11:26:19;47.17;;;24.02;;
65373;SDS011;52070;53.760;9.678;2023-01-29T11:28:49;43.03;;;22.95;;
65373;SDS011;52070;53.760;9.678;2023-01-29T11:31:17;43.20;;;22.88;;
65373;SDS011;52070;53.760;9.678;2023-01-29T11:33:46;42.25;;;24.15;;
65373;SDS011;52070;53.760;9.678;2023-01-29T11:36:29;44.70;;;23.50;;
65373;SDS011;52070;53.760;9.678;2023-01-29T11:39:09;47.35;;;22.83;;
65373;SDS011;52070;53.760;9.678;2023-01-29T11:41:46;44.83;;;22.58;;
65373;SDS011;52070;53.760;9.678;2023-01-29T11:44:18;46.25;;;23.38;;
65373;SDS011;52070;53.760;9.678;2023-01-29T11:46:46;43.08;;;25.17;;
65373;SDS011;52070;53.760;9.678;2023-01-29T11:49:20;51.92;;;25.92;;
65373;SDS011;52070;53.760;9.678;2023-01-29T11:51:58;53.97;;;27.52;;
65373;SDS011;52070;53.760;9.678;2023-01-29T11:54:29;46.17;;;25.75;;
65373;SDS011;52070;53.760;9.678;2023-01-29T11:57:01;48.28;;;24.90;;
65373;SDS011;52070;53.760;9.678;2023-01-29T11:59:35;47.58;;;25.50;;
65373;SDS011;52070;53.760;9.678;2023-01-29T12:02:13;51.53;;;25.08;;
65373;SDS011;52070;53.760;9.678;2023-01-29T12:04:46;48.38;;;25.58;;
65373;SDS011;52070;53.760;9.678;2023-01-29T12:07:14;54.13;;;26.05;;
65373;SDS011;52070;53.760;9.678;2023-01-29T12:09:47;52.28;;;25.83;;
65373;SDS011;52070;53.760;9.678;2023-01-29T12:12:26;50.10;;;24.17;;
65373;SDS011;52070;53.760;9.678;2023-01-29T12:17:55;46.05;;;23.90;;
65373;SDS011;52070;53.760;9.678;2023-01-29T12:20:29;44.70;;;24.13;;
65373;SDS011;52070;53.760;9.678;2023-01-29T12:23:03;46.97;;;24.38;;
65373;SDS011;52070;53.760;9.678;2023-01-29T12:25:40;48.78;;;23.63;;
65373;SDS011;52070;53.760;9.678;2023-01-29T12:28:17;46.83;;;24.55;;
65373;SDS011;52070;53.760;9.678;2023-01-29T12:30:49;44.85;;;23.30;;
65373;SDS011;52070;53.760;9.678;2023-01-29T12:33:28;41.95;;;23.35;;
65373;SDS011;52070;53.760;9.678;2023-01-29T12:36:06;42.58;;;23.00;;
65373;SDS011;52070;53.760;9.678;2023-01-29T12:38:38;43.83;;;23.50;;
65373;SDS011;52070;53.760;9.678;2023-01-29T12:41:08;39.45;;;21.75;;
65373;SDS011;52070;53.760;9.678;2023-01-29T12:43:52;40.58;;;22.40;;
65373;SDS011;52070;53.760;9.678;2023-01-29T12:46:23;43.13;;;21.95;;
65373;SDS011;52070;53.760;9.678;2023-01-29T12:48:54;37.83;;;21.13;;
65373;SDS011;52070;53.760;9.678;2023-01-29T12:51:26;43.67;;;22.05;;
65373;SDS011;52070;53.760;9.678;2023-01-29T12:53:59;38.83;;;21.08;;
65373;SDS011;52070;53.760;9.678;2023-01-29T12:56:33;39.72;;;21.30;;
65373;SDS011;52070;53.760;9.678;2023-01-29T12:59:08;35.90;;;20.33;;
65373;SDS011;52070;53.760;9.678;2023-01-29T13:01:42;39.38;;;22.10;;
65373;SDS011;52070;53.760;9.678;2023-01-29T13:04:15;42.53;;;21.65;;
65373;SDS011;52070;53.760;9.678;2023-01-29T13:06:52;37.42;;;20.60;;
65373;SDS011;52070;53.760;9.678;2023-01-29T13:09:24;41.22;;;22.48;;
65373;SDS011;52070;53.760;9.678;2023-01-29T13:11:54;44.35;;;23.63;;
65373;SDS011;52070;53.760;9.678;2023-01-29T13:14:25;44.58;;;22.30;;
65373;SDS011;52070;53.760;9.678;2023-01-29T13:17:08;38.42;;;20.85;;
65373;SDS011;52070;53.760;9.678;2023-01-29T13:19:41;52.35;;;24.00;;
65373;SDS011;52070;53.760;9.678;2023-01-29T13:22:14;39.42;;;21.92;;
65373;SDS011;52070;53.760;9.678;2023-01-29T13:24:45;41.80;;;21.73;;
65373;SDS011;52070;53.760;9.678;2023-01-29T13:27:19;39.25;;;21.20;;
65373;SDS011;52070;53.760;9.678;2023-01-29T13:29:49;42.55;;;23.30;;
65373;SDS011;52070;53.760;9.678;2023-01-29T13:32:20;36.78;;;21.23;;
65373;SDS011;52070;53.760;9.678;2023-01-29T13:34:50;43.17;;;21.48;;
65373;SDS011;52070;53.760;9.678;2023-01-29T13:37:22;40.05;;;21.50;;
65373;SDS011;52070;53.760;9.678;2023-01-29T13:39:53;41.20;;;21.80;;
65373;SDS011;52070;53.760;9.678;2023-01-29T13:42:25;40.55;;;21.30;;
65373;SDS011;52070;53.760;9.678;2023-01-29T13:45:04;34.95;;;19.42;;
65373;SDS011;52070;53.760;9.678;2023-01-29T13:47:34;41.50;;;22.08;;
65373;SDS011;52070;53.760;9.678;2023-01-29T13:50:04;36.17;;;20.17;;
65373;SDS011;52070;53.760;9.678;2023-01-29T13:52:34;37.63;;;20.98;;
65373;SDS011;52070;53.760;9.678;2023-01-29T13:55:06;35.70;;;20.50;;
65373;SDS011;52070;53.760;9.678;2023-01-29T13:57:48;33.45;;;18.38;;
65373;SDS011;52070;53.760;9.678;2023-01-29T14:15:24;41.92;;;21.85;;
65373;SDS011;52070;53.760;9.678;2023-01-29T14:17:53;42.70;;;23.45;;
65373;SDS011;52070;53.760;9.678;2023-01-29T14:20:26;41.03;;;22.17;;
65373;SDS011;52070;53.760;9.678;2023-01-29T14:22:58;42.40;;;22.33;;
65373;SDS011;52070;53.760;9.678;2023-01-29T14:25:27;38.67;;;21.13;;
65373;SDS011;52070;53.760;9.678;2023-01-29T14:27:56;40.25;;;21.48;;
65373;SDS011;52070;53.760;9.678;2023-01-29T14:30:25;41.67;;;21.90;;
65373;SDS011;52070;53.760;9.678;2023-01-29T14:32:55;47.17;;;22.27;;
65373;SDS011;52070;53.760;9.678;2023-01-29T14:35:23;40.30;;;23.05;;
65373;SDS011;52070;53.760;9.678;2023-01-29T14:37:54;43.55;;;23.73;;
65373;SDS011;52070;53.760;9.678;2023-01-29T14:40:23;43.50;;;23.90;;
65373;SDS011;52070;53.760;9.678;2023-01-29T14:42:55;41.42;;;22.02;;
65373;SDS011;52070;53.760;9.678;2023-01-29T14:45:27;43.72;;;22.73;;
65373;SDS011;52070;53.760;9.678;2023-01-29T14:47:56;43.60;;;23.15;;
65373;SDS011;52070;53.760;9.678;2023-01-29T14:50:38;42.10;;;22.75;;
65373;SDS011;52070;53.760;9.678;2023-01-29T14:53:10;44.50;;;22.33;;
65373;SDS011;52070;53.760;9.678;2023-01-29T14:55:42;47.97;;;24.05;;
65373;SDS011;52070;53.760;9.678;2023-01-29T14:58:11;51.92;;;25.13;;
65373;SDS011;52070;53.760;9.678;2023-01-29T15:03:11;45.83;;;22.98;;
65373;SDS011;52070;53.760;9.678;2023-01-29T15:05:43;45.55;;;23.65;;
65373;SDS011;52070;53.760;9.678;2023-01-29T15:08:14;44.03;;;24.63;;
65373;SDS011;52070;53.760;9.678;2023-01-29T15:10:50;48.00;;;25.20;;
65373;SDS011;52070;53.760;9.678;2023-01-29T15:13:34;53.47;;;26.67;;
65373;SDS011;52070;53.760;9.678;2023-01-29T15:16:08;55.20;;;26.25;;
65373;SDS011;52070;53.760;9.678;2023-01-29T15:18:43;60.25;;;28.83;;